Observation data for Tatum on 11/21/2020      Previous  Date       Current Mesonet Observations  Soil Data  Daily Summary Page  Observations in Plain Language
KTAT 210600Z 02007KT 09/M00 A3032 RMK A01 T00921003  RH  052%=      5-min Rain = 0
KTAT 210605Z 01007KT 09/M00 A3032 RMK A01 T00911003  RH  052%=      5-min Rain = 0
KTAT 210610Z 01007KT 09/M00 A3033 RMK A01 T00901004  RH  052%=      5-min Rain = 0
KTAT 210615Z 00008KT 09/M00 A3033 RMK A01 T00901003  RH  053%=      5-min Rain = 0
KTAT 210620Z 01007KT 09/M00 A3033 RMK A01 T00901001  RH  053%=      5-min Rain = 0
KTAT 210625Z 01007KT 09/00 A3033 RMK A01 T00900000  RH  054%=      5-min Rain = 0
KTAT 210630Z 01008KT 09/00 A3033 RMK A01 T00900001  RH  054%=      5-min Rain = 0
KTAT 210635Z 01008KT 09/00 A3033 RMK A01 T00910003  RH  055%=      5-min Rain = 0
KTAT 210640Z 02007KT 09/00 A3033 RMK A01 T00910004  RH  055%=      5-min Rain = 0
KTAT 210645Z 02006KT 09/01 A3033 RMK A01 T00910005  RH  055%=      5-min Rain = 0
KTAT 210650Z 01006KT 09/01 A3033 RMK A01 T00910005  RH  055%=      5-min Rain = 0
KTAT 210655Z 00007KT 09/00 A3033 RMK A01 T00900004  RH  055%=      5-min Rain = 0
KTAT 210700Z 01007KT 09/00 A3033 RMK A01 T00900003  RH  055%=      5-min Rain = 0
KTAT 210705Z 02007KT 09/00 A3033 RMK A01 T00900003  RH  055%=      5-min Rain = 0
KTAT 210710Z 02007KT 09/01 A3033 RMK A01 T00890005  RH  056%=      5-min Rain = 0
KTAT 210715Z 03007KT 09/01 A3033 RMK A01 T00880006  RH  057%=      5-min Rain = 0
KTAT 210720Z 03008KT 09/01 A3032 RMK A01 T00870007  RH  058%=      5-min Rain = 0
KTAT 210725Z 02007KT 09/01 A3032 RMK A01 T00870007  RH  058%=      5-min Rain = 0
KTAT 210730Z 02006KT 09/01 A3032 RMK A01 T00850005  RH  058%=      5-min Rain = 0
KTAT 210735Z 02006KT 08/01 A3032 RMK A01 T00820005  RH  059%=      5-min Rain = 0
KTAT 210740Z 01005KT 08/00 A3032 RMK A01 T00810003  RH  059%=      5-min Rain = 0
KTAT 210745Z 01006KT 08/M00 A3032 RMK A01 T00781001  RH  058%=      5-min Rain = 0
KTAT 210750Z 00007KT 08/M00 A3032 RMK A01 T00771002  RH  058%=      5-min Rain = 0
KTAT 210755Z 36009KT 08/M00 A3032 RMK A01 T00751002  RH  059%=      5-min Rain = 0
KTAT 210800Z 36008KT 08/M00 A3032 RMK A01 T00751002  RH  059%=      5-min Rain = 0
KTAT 210805Z 36010KT 08/M00 A3032 RMK A01 T00761002  RH  058%=      5-min Rain = 0
KTAT 210810Z 00009KT 08/M00 A3032 RMK A01 T00761002  RH  058%=      5-min Rain = 0
KTAT 210815Z 00009KT 07/M00 A3032 RMK A01 T00741003  RH  059%=      5-min Rain = 0
KTAT 210820Z 02008KT 07/M00 A3032 RMK A01 T00731003  RH  059%=      5-min Rain = 0
KTAT 210825Z 01009KT 07/M00 A3031 RMK A01 T00721002  RH  060%=      5-min Rain = 0
KTAT 210830Z 03007KT 07/M00 A3031 RMK A01 T00721002  RH  060%=      5-min Rain = 0
KTAT 210835Z 09003KT 07/M00 A3032 RMK A01 T00691003  RH  061%=      5-min Rain = 0
KTAT 210840Z 00003KT 07/00 A3032 RMK A01 T006800-0  RH  062%=      5-min Rain = 0
KTAT 210845Z 01005KT 07/00 A3031 RMK A01 T007100-0  RH  061%=      5-min Rain = 0
KTAT 210850Z 03007KT 07/M00 A3031 RMK A01 T00711001  RH  061%=      5-min Rain = 0
KTAT 210855Z 03008KT 07/M00 A3031 RMK A01 T00691001  RH  062%=      5-min Rain = 0
KTAT 210900Z 02006KT 07/00 A3031 RMK A01 T00680000  RH  063%=      5-min Rain = 0
KTAT 210905Z 01005KT 07/00 A3031 RMK A01 T00670000  RH  063%=      5-min Rain = 0
KTAT 210910Z 01004KT 07/M00 A3031 RMK A01 T00661001  RH  063%=      5-min Rain = 0
KTAT 210915Z 00005KT 07/M00 A3031 RMK A01 T00651002  RH  063%=      5-min Rain = 0
KTAT 210920Z 36006KT 06/M00 A3031 RMK A01 T00641002  RH  063%=      5-min Rain = 0
KTAT 210925Z 00007KT 06/M00 A3031 RMK A01 T00641002  RH  063%=      5-min Rain = 0
KTAT 210930Z 00007KT 06/M00 A3031 RMK A01 T00631002  RH  064%=      5-min Rain = 0
KTAT 210935Z 01007KT 06/M00 A3031 RMK A01 T00631002  RH  064%=      5-min Rain = 0
KTAT 210940Z 00007KT 06/M00 A3031 RMK A01 T00611002  RH  064%=      5-min Rain = 0
KTAT 210945Z 01008KT 06/M00 A3031 RMK A01 T00611002  RH  065%=      5-min Rain = 0
KTAT 210950Z 01008KT 06/M00 A3031 RMK A01 T00611002  RH  065%=      5-min Rain = 0
KTAT 210955Z 01008KT 06/M00 A3031 RMK A01 T00601001  RH  066%=      5-min Rain = 0
KTAT 211000Z 02008KT 06/00 A3031 RMK A01 T00600000  RH  066%=      5-min Rain = 0
KTAT 211005Z 02007KT 06/00 A3031 RMK A01 T00610002  RH  067%=      5-min Rain = 0
KTAT 211010Z 03008KT 06/00 A303 RMK A01 T00610003  RH  067%=      5-min Rain = 0
KTAT 211015Z 03009KT 06/00 A303 RMK A01 T00620004  RH  068%=      5-min Rain = 0
KTAT 211020Z 03008KT 06/00 A303 RMK A01 T00610004  RH  068%=      5-min Rain = 0
KTAT 211025Z 02007KT 06/00 A3031 RMK A01 T00600004  RH  068%=      5-min Rain = 0
KTAT 211030Z 02007KT 06/00 A3031 RMK A01 T00590004  RH  068%=      5-min Rain = 0
KTAT 211035Z 03008KT 06/00 A3031 RMK A01 T00580002  RH  068%=      5-min Rain = 0
KTAT 211040Z 03007KT 06/00 A3031 RMK A01 T00570004  RH  069%=      5-min Rain = 0
KTAT 211045Z 03007KT 06/00 A3031 RMK A01 T00560004  RH  070%=      5-min Rain = 0
KTAT 211050Z 03007KT 06/00 A3031 RMK A01 T00560004  RH  070%=      5-min Rain = 0
KTAT 211055Z 04008KT 06/00 A303 RMK A01 T00550004  RH  071%=      5-min Rain = 0
KTAT 211100Z 04008KT 05/01 A303 RMK A01 T00540005  RH  072%=      5-min Rain = 0
KTAT 211105Z 04008KT 06/01 A303 RMK A01 T00550007  RH  072%=      5-min Rain = 0
KTAT 211110Z 04008KT 06/01 A303 RMK A01 T00560009  RH  073%=      5-min Rain = 0
KTAT 211115Z 03008KT 06/01 A303 RMK A01 T00590011  RH  073%=      5-min Rain = 0
KTAT 211120Z 02008KT 06/01 A303 RMK A01 T00590011  RH  072%=      5-min Rain = 0
KTAT 211125Z 02008KT 06/01 A3031 RMK A01 T00580010  RH  072%=      5-min Rain = 0
KTAT 211130Z 02008KT 06/01 A3031 RMK A01 T00570010  RH  073%=      5-min Rain = 0
KTAT 211135Z 02008KT 06/01 A3031 RMK A01 T00560010  RH  073%=      5-min Rain = 0
KTAT 211140Z 02008KT 06/01 A3031 RMK A01 T00560010  RH  073%=      5-min Rain = 0
KTAT 211145Z 02009KT 06/01 A3031 RMK A01 T00560011  RH  074%=      5-min Rain = 0
KTAT 211150Z 02009KT 06/01 A3031 RMK A01 T00560011  RH  074%=      5-min Rain = 0
KTAT 211155Z 01009KT 06/01 A3031 RMK A01 T00550011  RH  074%=      5-min Rain = 0
KTAT 211200Z 02008KT 06/01 A3031 RMK A01 T00550012  RH  075%=      5-min Rain = 0
KTAT 211205Z 02009KT 05/01 A3031 RMK A01 T00540012  RH  075%=      5-min Rain = 0
KTAT 211210Z 02007KT 05/01 A3032 RMK A01 T00520011  RH  076%=      5-min Rain = 0
KTAT 211215Z 02008KT 05/01 A3032 RMK A01 T00510010  RH  076%=      5-min Rain = 0
KTAT 211220Z 01009KT 05/01 A3032 RMK A01 T00490008  RH  076%=      5-min Rain = 0
KTAT 211225Z 01008KT 05/01 A3032 RMK A01 T00470008  RH  076%=      5-min Rain = 0
KTAT 211230Z 02008KT 05/01 A3032 RMK A01 T00470009  RH  077%=      5-min Rain = 0
KTAT 211235Z 02008KT 05/01 A3032 RMK A01 T00470010  RH  078%=      5-min Rain = 0
KTAT 211240Z 02008KT 05/01 A3032 RMK A01 T00480012  RH  078%=      5-min Rain = 0
KTAT 211245Z 02008KT 05/01 A3032 RMK A01 T00480013  RH  079%=      5-min Rain = 0
KTAT 211250Z 03008KT 05/01 A3032 RMK A01 T00480013  RH  079%=      5-min Rain = 0
KTAT 211255Z 03008KT 05/02 A3032 RMK A01 T00480015  RH  080%=      5-min Rain = 0
KTAT 211300Z 03008KT 05/02 A3032 RMK A01 T00480016  RH  081%=      5-min Rain = 0
KTAT 211305Z 04008KT 05/02 A3032 RMK A01 T00480016  RH  081%=      5-min Rain = 0
KTAT 211310Z 04009KT 05/02 A3032 RMK A01 T00480019  RH  083%=      5-min Rain = 0
KTAT 211315Z 04009KT 05/02 A3032 RMK A01 T00510023  RH  084%=      5-min Rain = 0
KTAT 211320Z 03009KT 05/02 A3033 RMK A01 T00510023  RH  084%=      5-min Rain = 0
KTAT 211325Z 03009KT 05/02 A3033 RMK A01 T00510024  RH  084%=      5-min Rain = 0
KTAT 211330Z 03008KT 05/02 A3033 RMK A01 T00500024  RH  084%=      5-min Rain = 0
KTAT 211335Z 03008KT 05/02 A3033 RMK A01 T00500024  RH  085%=      5-min Rain = 0
KTAT 211340Z 04008KT 05/03 A3033 RMK A01 T00510026  RH  086%=      5-min Rain = 0
KTAT 211345Z 05009KT 05/03 A3033 RMK A01 T00520027  RH  086%=      5-min Rain = 0
KTAT 211350Z 06008KT 05/03 A3033 RMK A01 T00520028  RH  086%=      5-min Rain = 0
KTAT 211355Z 06008KT 06/03 A3033 RMK A01 T00550031  RH  086%=      5-min Rain = 0
KTAT 211400Z 06008KT 06/03 A3033 RMK A01 T00580034  RH  086%=      5-min Rain = 0
KTAT 211405Z 07009KT 06/04 A3033 RMK A01 T00610037  RH  086%=      5-min Rain = 0
KTAT 211410Z 07009KT 06/04 A3033 RMK A01 T00640039  RH  086%=      5-min Rain = 0
KTAT 211415Z 06009KT 07/04 A3033 RMK A01 T00670041  RH  085%=      5-min Rain = 0
KTAT 211420Z 06009KT 07/04 A3033 RMK A01 T00700043  RH  085%=      5-min Rain = 0
KTAT 211425Z 07009KT 07/04 A3033 RMK A01 T00720044  RH  084%=      5-min Rain = 0
KTAT 211430Z 07009KT 08/05 A3033 RMK A01 T00750046  RH  084%=      5-min Rain = 0
KTAT 211435Z 08009KT 08/05 A3033 RMK A01 T00780047  RH  083%=      5-min Rain = 0
KTAT 211440Z 07009KT 08/05 A3033 RMK A01 T00820050  RH  082%=      5-min Rain = 0
KTAT 211445Z 07010KT 09/05 A3034 RMK A01 T00860052  RH  081%=      5-min Rain = 0
KTAT 211450Z 07010KT 09/05 A3034 RMK A01 T00890054  RH  081%=      5-min Rain = 0
KTAT 211455Z 07008KT 09/06 A3034 RMK A01 T00930057  RH  080%=      5-min Rain = 0
KTAT 211500Z 08009KT 10/06 A3034 RMK A01 T00960057  RH  078%=      5-min Rain = 0
KTAT 211505Z 08010KT 10/06 A3034 RMK A01 T00990058  RH  078%=      5-min Rain = 0
KTAT 211510Z 08011KT 10/06 A3034 RMK A01 T01010059  RH  077%=      5-min Rain = 0
KTAT 211515Z 09012KT 10/06 A3033 RMK A01 T01040061  RH  077%=      5-min Rain = 0
KTAT 211520Z 09012KT 11/06 A3033 RMK A01 T01060062  RH  076%=      5-min Rain = 0
KTAT 211525Z 09011KT 11/06 A3033 RMK A01 T01090063  RH  075%=      5-min Rain = 0
KTAT 211530Z 10012KT 11/06 A3033 RMK A01 T01130063  RH  073%=      5-min Rain = 0
KTAT 211535Z 10011KT 12/06 A3033 RMK A01 T01150064  RH  073%=      5-min Rain = 0
KTAT 211540Z 09010KT 12/07 A3033 RMK A01 T01210066  RH  071%=      5-min Rain = 0
KTAT 211545Z 10011KT 13/07 A3034 RMK A01 T01250066  RH  069%=      5-min Rain = 0
KTAT 211550Z 11011KT 13/07 A3034 RMK A01 T01260067  RH  069%=      5-min Rain = 0
KTAT 211555Z 10010KT 13/07 A3034 RMK A01 T01280067  RH  068%=      5-min Rain = 0
KTAT 211600Z 10010KT 13/07 A3034 RMK A01 T01300067  RH  067%=      5-min Rain = 0
KTAT 211605Z 11009KT 13/07 A3034 RMK A01 T01320068  RH  067%=      5-min Rain = 0
KTAT 211610Z 11009KT 13/07 A3034 RMK A01 T01320067  RH  066%=      5-min Rain = 0
KTAT 211615Z 11009KT 13/07 A3034 RMK A01 T01340068  RH  066%=      5-min Rain = 0
KTAT 211620Z 12008KT 14/07 A3034 RMK A01 T01360069  RH  066%=      5-min Rain = 0
KTAT 211625Z 13006KT 14/07 A3034 RMK A01 T01370069  RH  065%=      5-min Rain = 0
KTAT 211630Z 11007KT 14/07 A3033 RMK A01 T01410072  RH  065%=      5-min Rain = 0
KTAT 211635Z 13008KT 15/07 A3033 RMK A01 T01470073  RH  063%=      5-min Rain = 0
KTAT 211640Z 13008KT 14/07 A3033 RMK A01 T01420073  RH  064%=      5-min Rain = 0
KTAT 211645Z 13008KT 14/07 A3033 RMK A01 T01440074  RH  065%=      5-min Rain = 0
KTAT 211650Z 13009G14KT 14/08 A3033 RMK A01 T01440075  RH  065%=      5-min Rain = 0
KTAT 211655Z 13007KT 15/08 A3033 RMK A01 T01480075  RH  064%=      5-min Rain = 0
KTAT 211700Z 13008KT 15/08 A3033 RMK A01 T01530078  RH  063%=      5-min Rain = 0
KTAT 211705Z 12007G12KT 16/08 A3033 RMK A01 T01550078  RH  062%=      5-min Rain = 0
KTAT 211710Z 12007KT 16/08 A3033 RMK A01 T01610079  RH  060%=      5-min Rain = 0
KTAT 211715Z 11006G14KT 16/08 A3033 RMK A01 T01610077  RH  059%=      5-min Rain = 0
KTAT 211720Z 11007KT 16/08 A3033 RMK A01 T01640078  RH  058%=      5-min Rain = 0
KTAT 211725Z 10008KT 17/08 A3033 RMK A01 T01680080  RH  058%=      5-min Rain = 0
KTAT 211730Z 13007G15KT 17/08 A3032 RMK A01 T01690080  RH  057%=      5-min Rain = 0
KTAT 211735Z 13005G10KT 17/08 A3032 RMK A01 T01670080  RH  058%=      5-min Rain = 0
KTAT 211740Z 12008KT 17/08 A3032 RMK A01 T01700080  RH  057%=      5-min Rain = 0
KTAT 211745Z 12004G9KT 17/08 A3032 RMK A01 T01690080  RH  057%=      5-min Rain = 0
KTAT 211750Z 10006KT 17/08 A3032 RMK A01 T01730082  RH  057%=      5-min Rain = 0
KTAT 211755Z 15005KT 18/08 A3032 RMK A01 T01810082  RH  054%=      5-min Rain = 0
KTAT 211800Z 15007KT 18/08 A3032 RMK A01 T01810081  RH  053%=      5-min Rain = 0
KTAT 211805Z 18005KT 18/08 A3031 RMK A01 T01810082  RH  054%=      5-min Rain = 0
KTAT 211810Z 15006KT 18/08 A3031 RMK A01 T01840082  RH  053%=      5-min Rain = 0
KTAT 211815Z 15005G10KT 19/08 A3031 RMK A01 T01880081  RH  051%=      5-min Rain = 0
KTAT 211820Z 19004KT 18/08 A303 RMK A01 T01840081  RH  052%=      5-min Rain = 0
KTAT 211825Z 13006KT 18/08 A303 RMK A01 T01840080  RH  052%=      5-min Rain = 0
KTAT 211830Z 13004KT 18/08 A303 RMK A01 T01830081  RH  053%=      5-min Rain = 0
KTAT 211835Z 11005KT 19/08 A3029 RMK A01 T01880081  RH  051%=      5-min Rain = 0
KTAT 211840Z 15004KT 19/08 A3029 RMK A01 T01930081  RH  050%=      5-min Rain = 0
KTAT 211845Z 13003KT 19/08 A3028 RMK A01 T01890080  RH  051%=      5-min Rain = 0
KTAT 211850Z 14005G10KT 19/08 A3028 RMK A01 T01910081  RH  050%=      5-min Rain = 0
KTAT 211855Z 13007KT 19/08 A3027 RMK A01 T01930079  RH  049%=      5-min Rain = 0
KTAT 211900Z 11004KT 19/08 A3027 RMK A01 T01930081  RH  049%=      5-min Rain = 0
KTAT 211905Z 12005G11KT 20/08 A3027 RMK A01 T01950079  RH  048%=      5-min Rain = 0
KTAT 211910Z 12008KT 20/08 A3026 RMK A01 T01960079  RH  048%=      5-min Rain = 0
KTAT 211915Z 11005G10KT 19/08 A3026 RMK A01 T01940079  RH  049%=      5-min Rain = 0
KTAT 211920Z 12008G13KT 20/08 A3026 RMK A01 T01960079  RH  048%=      5-min Rain = 0
KTAT 211925Z 11009KT 19/08 A3025 RMK A01 T01940078  RH  048%=      5-min Rain = 0
KTAT 211930Z 11007KT 19/08 A3025 RMK A01 T01930078  RH  049%=      5-min Rain = 0
KTAT 211935Z 14010KT 19/08 A3024 RMK A01 T01920077  RH  049%=      5-min Rain = 0
KTAT 211940Z 13006KT 20/08 A3024 RMK A01 T01970078  RH  048%=      5-min Rain = 0
KTAT 211945Z 13007KT 20/08 A3024 RMK A01 T01990077  RH  047%=      5-min Rain = 0
KTAT 211950Z 14008KT 20/08 A3024 RMK A01 T01970077  RH  047%=      5-min Rain = 0
KTAT 211955Z 13008G13KT 20/08 A3024 RMK A01 T02000076  RH  046%=      5-min Rain = 0
KTAT 212000Z 12010KT 20/08 A3023 RMK A01 T01970076  RH  047%=      5-min Rain = 0
KTAT 212005Z 13006G11KT 20/08 A3023 RMK A01 T01980076  RH  046%=      5-min Rain = 0
KTAT 212010Z 14010KT 20/08 A3023 RMK A01 T02020075  RH  045%=      5-min Rain = 0
KTAT 212015Z 12007KT 20/08 A3023 RMK A01 T01990076  RH  046%=      5-min Rain = 0
KTAT 212020Z 12009KT 20/08 A3022 RMK A01 T02020075  RH  045%=      5-min Rain = 0
KTAT 212025Z 12009G15KT 20/08 A3022 RMK A01 T02040075  RH  044%=      5-min Rain = 0
KTAT 212030Z 12009G14KT 21/08 A3022 RMK A01 T02080075  RH  043%=      5-min Rain = 0
KTAT 212035Z 15009KT 21/07 A3022 RMK A01 T02080074  RH  043%=      5-min Rain = 0
KTAT 212040Z 13010KT 21/07 A3021 RMK A01 T02080074  RH  043%=      5-min Rain = 0
KTAT 212045Z 12007G12KT 21/08 A3021 RMK A01 T02050075  RH  044%=      5-min Rain = 0
KTAT 212050Z 15010KT 21/07 A3021 RMK A01 T02110073  RH  042%=      5-min Rain = 0
KTAT 212055Z 16010KT 22/07 A3021 RMK A01 T02180073  RH  040%=      5-min Rain = 0
KTAT 212100Z 15009KT 21/07 A3021 RMK A01 T02110074  RH  042%=      5-min Rain = 0
KTAT 212105Z 15012KT 21/07 A302 RMK A01 T02140072  RH  041%=      5-min Rain = 0
KTAT 212110Z 14010KT 21/07 A302 RMK A01 T02110072  RH  042%=      5-min Rain = 0
KTAT 212115Z 14011KT 21/07 A302 RMK A01 T02090073  RH  043%=      5-min Rain = 0
KTAT 212120Z 15010G15KT 21/07 A302 RMK A01 T02080074  RH  043%=      5-min Rain = 0
KTAT 212125Z 14011G16KT 21/07 A302 RMK A01 T02090073  RH  043%=      5-min Rain = 0
KTAT 212130Z 15011G16KT 21/07 A302 RMK A01 T02090072  RH  042%=      5-min Rain = 0
KTAT 212135Z 15010KT 21/07 A302 RMK A01 T02110074  RH  042%=      5-min Rain = 0
KTAT 212140Z 15011KT 22/07 A302 RMK A01 T02150071  RH  040%=      5-min Rain = 0
KTAT 212145Z 14011KT 21/07 A302 RMK A01 T02130070  RH  041%=      5-min Rain = 0
KTAT 212150Z 15011KT 21/07 A3019 RMK A01 T02110071  RH  041%=      5-min Rain = 0
KTAT 212155Z 14012KT 21/07 A3019 RMK A01 T02090072  RH  042%=      5-min Rain = 0
KTAT 212200Z 15012KT 21/07 A3019 RMK A01 T02080072  RH  042%=      5-min Rain = 0
KTAT 212205Z 16011KT 21/07 A3019 RMK A01 T02100072  RH  042%=      5-min Rain = 0
KTAT 212210Z 14011KT 21/07 A3019 RMK A01 T02060071  RH  043%=      5-min Rain = 0
KTAT 212215Z 15011KT 20/07 A3019 RMK A01 T02020072  RH  044%=      5-min Rain = 0
KTAT 212220Z 14011KT 20/07 A3019 RMK A01 T02010072  RH  044%=      5-min Rain = 0
KTAT 212225Z 14011KT 20/07 A3019 RMK A01 T01970073  RH  046%=      5-min Rain = 0
KTAT 212230Z 14010KT 20/07 A3019 RMK A01 T01970073  RH  046%=      5-min Rain = 0
KTAT 212235Z 15011KT 20/07 A3019 RMK A01 T01960074  RH  046%=      5-min Rain = 0
KTAT 212240Z 14010KT 20/08 A3019 RMK A01 T01950075  RH  047%=      5-min Rain = 0
KTAT 212245Z 14011KT 20/08 A3019 RMK A01 T01990075  RH  046%=      5-min Rain = 0
KTAT 212250Z 14011KT 20/08 A3019 RMK A01 T01970075  RH  046%=      5-min Rain = 0
KTAT 212255Z 13010KT 20/08 A3019 RMK A01 T01950077  RH  048%=      5-min Rain = 0
KTAT 212300Z 14010KT 19/08 A3019 RMK A01 T01940078  RH  048%=      5-min Rain = 0
KTAT 212305Z 15011KT 19/08 A3019 RMK A01 T01940077  RH  048%=      5-min Rain = 0
KTAT 212310Z 15010KT 19/08 A3019 RMK A01 T01920078  RH  049%=      5-min Rain = 0
KTAT 212315Z 15011KT 19/08 A3018 RMK A01 T01900078  RH  050%=      5-min Rain = 0
KTAT 212320Z 15009KT 19/08 A3019 RMK A01 T01880078  RH  050%=      5-min Rain = 0
KTAT 212325Z 15008KT 19/08 A3018 RMK A01 T01860078  RH  051%=      5-min Rain = 0
KTAT 212330Z 14008KT 18/08 A3018 RMK A01 T01820079  RH  052%=      5-min Rain = 0
KTAT 212335Z 14007KT 18/08 A3018 RMK A01 T01770078  RH  054%=      5-min Rain = 0
KTAT 212340Z 13007KT 17/08 A3018 RMK A01 T01720079  RH  056%=      5-min Rain = 0
KTAT 212345Z 13007KT 17/08 A3018 RMK A01 T01670078  RH  057%=      5-min Rain = 0
KTAT 212350Z 12006KT 16/08 A3018 RMK A01 T01620075  RH  058%=      5-min Rain = 0
KTAT 212355Z 11007KT 16/07 A3018 RMK A01 T01570073  RH  059%=      5-min Rain = 0
KTAT 220000Z 10006KT 15/07 A3019 RMK A01 T01530072  RH  060%=      5-min Rain = 0
KTAT 220005Z 10007KT 15/07 A3019 RMK A01 T01500073  RH  061%=      5-min Rain = 0
KTAT 220010Z 08008KT 15/08 A3019 RMK A01 T01470076  RH  064%=      5-min Rain = 0
KTAT 220015Z 09008KT 15/08 A3019 RMK A01 T01450079  RH  067%=      5-min Rain = 0
KTAT 220020Z 09008KT 15/08 A3019 RMK A01 T01450077  RH  065%=      5-min Rain = 0
KTAT 220025Z 08008KT 14/08 A3019 RMK A01 T01430075  RH  065%=      5-min Rain = 0
KTAT 220030Z 08008KT 14/07 A3019 RMK A01 T01390074  RH  066%=      5-min Rain = 0
KTAT 220035Z 09008KT 14/08 A3019 RMK A01 T01370076  RH  068%=      5-min Rain = 0
KTAT 220040Z 10008KT 14/08 A3019 RMK A01 T01380077  RH  069%=      5-min Rain = 0
KTAT 220045Z 10008KT 14/08 A3019 RMK A01 T01380080  RH  070%=      5-min Rain = 0
KTAT 220050Z 10008KT 14/08 A3019 RMK A01 T01390081  RH  070%=      5-min Rain = 0
KTAT 220055Z 10009KT 14/08 A3019 RMK A01 T01380080  RH  070%=      5-min Rain = 0
KTAT 220100Z 10008KT 14/08 A3019 RMK A01 T01360080  RH  071%=      5-min Rain = 0
KTAT 220105Z 10008KT 13/08 A302 RMK A01 T01340080  RH  071%=      5-min Rain = 0
KTAT 220110Z 10008KT 13/08 A302 RMK A01 T01330080  RH  072%=      5-min Rain = 0
KTAT 220115Z 10008KT 13/08 A302 RMK A01 T01320080  RH  073%=      5-min Rain = 0
KTAT 220120Z 10008KT 13/08 A302 RMK A01 T01300079  RH  073%=      5-min Rain = 0
KTAT 220125Z 10007KT 13/08 A302 RMK A01 T01270077  RH  074%=      5-min Rain = 0
KTAT 220130Z 09007KT 12/08 A302 RMK A01 T01240076  RH  074%=      5-min Rain = 0
KTAT 220135Z 09007KT 12/08 A302 RMK A01 T01220075  RH  075%=      5-min Rain = 0
KTAT 220140Z 08007KT 12/08 A3021 RMK A01 T01210076  RH  076%=      5-min Rain = 0
KTAT 220145Z 07007KT 12/08 A3021 RMK A01 T01200076  RH  077%=      5-min Rain = 0
KTAT 220150Z 08008KT 12/08 A3021 RMK A01 T01220080  RH  078%=      5-min Rain = 0
KTAT 220155Z 08008KT 12/08 A3021 RMK A01 T01240082  RH  078%=      5-min Rain = 0
KTAT 220200Z 08008KT 13/08 A3021 RMK A01 T01260083  RH  077%=      5-min Rain = 0
KTAT 220205Z 08009KT 13/09 A3022 RMK A01 T01280086  RH  077%=      5-min Rain = 0
KTAT 220210Z 08010KT 13/09 A3021 RMK A01 T01310086  RH  076%=      5-min Rain = 0
KTAT 220215Z 09010KT 13/09 A3022 RMK A01 T01330085  RH  075%=      5-min Rain = 0
KTAT 220220Z 09009KT 13/08 A3021 RMK A01 T01320083  RH  074%=      5-min Rain = 0
KTAT 220225Z 10009KT 13/08 A3021 RMK A01 T01300083  RH  075%=      5-min Rain = 0
KTAT 220230Z 10009KT 13/08 A3022 RMK A01 T01290083  RH  076%=      5-min Rain = 0
KTAT 220235Z 10009KT 13/08 A3022 RMK A01 T01250081  RH  076%=      5-min Rain = 0
KTAT 220240Z 10008KT 12/08 A3022 RMK A01 T01220079  RH  077%=      5-min Rain = 0
KTAT 220245Z 10007KT 12/08 A3022 RMK A01 T01190077  RH  078%=      5-min Rain = 0
KTAT 220250Z 10007KT 12/08 A3022 RMK A01 T01150075  RH  078%=      5-min Rain = 0
KTAT 220255Z 11007KT 11/07 A3022 RMK A01 T01120073  RH  079%=      5-min Rain = 0
KTAT 220300Z 11008KT 11/07 A3022 RMK A01 T01110074  RH  081%=      5-min Rain = 0
KTAT 220305Z 11009KT 11/08 A3021 RMK A01 T01110076  RH  081%=      5-min Rain = 0
KTAT 220310Z 12009KT 11/08 A3021 RMK A01 T01110075  RH  081%=      5-min Rain = 0
KTAT 220315Z 12008KT 11/07 A3021 RMK A01 T01080072  RH  081%=      5-min Rain = 0
KTAT 220320Z 12008KT 10/07 A3021 RMK A01 T01040069  RH  081%=      5-min Rain = 0
KTAT 220325Z 12007KT 10/07 A3021 RMK A01 T01000067  RH  082%=      5-min Rain = 0
KTAT 220330Z 12008KT 10/07 A3021 RMK A01 T00980065  RH  082%=      5-min Rain = 0
KTAT 220335Z 12008KT 10/06 A3021 RMK A01 T00950064  RH  083%=      5-min Rain = 0
KTAT 220340Z 12007KT 10/07 A3021 RMK A01 T00950065  RH  084%=      5-min Rain = 0
KTAT 220345Z 12007KT 10/07 A3021 RMK A01 T00950065  RH  084%=      5-min Rain = 0
KTAT 220350Z 13006KT 09/06 A3021 RMK A01 T00930063  RH  083%=      5-min Rain = 0
KTAT 220355Z 13005KT 09/06 A3022 RMK A01 T00910062  RH  084%=      5-min Rain = 0
KTAT 220400Z 12005KT 09/06 A3022 RMK A01 T00910062  RH  084%=      5-min Rain = 0
KTAT 220405Z 11005KT 09/06 A3022 RMK A01 T00900062  RH  084%=      5-min Rain = 0
KTAT 220410Z 10005KT 09/06 A3022 RMK A01 T00900063  RH  085%=      5-min Rain = 0
KTAT 220415Z 09005KT 09/06 A3022 RMK A01 T00890064  RH  086%=      5-min Rain = 0
KTAT 220420Z 09005KT 09/07 A3022 RMK A01 T00890065  RH  087%=      5-min Rain = 0
KTAT 220425Z 09005KT 09/07 A3022 RMK A01 T00900065  RH  087%=      5-min Rain = 0
KTAT 220430Z 09006KT 09/07 A3022 RMK A01 T00890065  RH  087%=      5-min Rain = 0
KTAT 220435Z 11007KT 09/06 A3022 RMK A01 T00860061  RH  086%=      5-min Rain = 0
KTAT 220440Z 11006KT 09/06 A3022 RMK A01 T00850060  RH  087%=      5-min Rain = 0
KTAT 220445Z 11007KT 08/06 A3022 RMK A01 T00830058  RH  086%=      5-min Rain = 0
KTAT 220450Z 10006KT 08/06 A3022 RMK A01 T00810057  RH  087%=      5-min Rain = 0
KTAT 220455Z 10006KT 08/06 A3022 RMK A01 T00810058  RH  088%=      5-min Rain = 0
KTAT 220500Z 12006KT 08/06 A3022 RMK A01 T00820060  RH  088%=      5-min Rain = 0
KTAT 220505Z 12006KT 08/06 A3022 RMK A01 T00820060  RH  088%=      5-min Rain = 0
KTAT 220510Z 09006KT 08/06 A3022 RMK A01 T00810058  RH  087%=      5-min Rain = 0
KTAT 220515Z 09007KT 08/06 A3022 RMK A01 T00810059  RH  088%=      5-min Rain = 0
KTAT 220520Z 10007KT 08/06 A3022 RMK A01 T00790057  RH  088%=      5-min Rain = 0
KTAT 220525Z 11006KT 08/06 A3022 RMK A01 T00780056  RH  088%=      5-min Rain = 0
KTAT 220530Z 09006KT 08/06 A3022 RMK A01 T00780056  RH  088%=      5-min Rain = 0
KTAT 220535Z 07006KT 08/06 A3022 RMK A01 T00800061  RH  089%=      5-min Rain = 0
KTAT 220540Z 09005KT 08/06 A3022 RMK A01 T00830063  RH  090%=      5-min Rain = 0
KTAT 220545Z 11006KT 08/06 A3022 RMK A01 T00830063  RH  090%=      5-min Rain = 0
KTAT 220550Z 11006KT 08/06 A3022 RMK A01 T00800059  RH  089%=      5-min Rain = 0
KTAT 220555Z 11006KT 08/06 A3021 RMK A01 T00780056  RH  088%=      5-min Rain = 0

Page generated in 0.0471 seconds.